Time;durP1;ratioP1;P1;durP2;ratioP2;P2;SDS_P1;SDS_P2;PMS_P1;PMS_P2;Temp;Humidity;BMP_temperature;BMP_pressure;BME280_temperature;BME280_humidity;BME280_pressure;Samples;Min_cycle;Max_cycle;Signal;HPM_P1;HPM_P2
2024/02/09 00:00:06;;;;;;;9.85;2.95;;;9.50;99.90;;;;;;4946474;28;20486;-61
2024/02/09 00:02:31;;;;;;;13.55;3.80;;;9.40;99.90;;;;;;4947971;28;20035;-61
2024/02/09 00:04:57;;;;;;;12.60;3.33;;;9.50;99.90;;;;;;4945870;28;20023;-61
2024/02/09 00:07:23;;;;;;;15.75;4.00;;;9.50;99.90;;;;;;4945806;28;20031;-61
2024/02/09 00:09:49;;;;;;;14.82;3.72;;;9.40;99.90;;;;;;4945783;28;20020;-61
2024/02/09 00:12:20;;;;;;;14.27;4.00;;;9.50;99.90;;;;;;4931866;28;20069;-61
2024/02/09 00:14:47;;;;;;;12.63;4.40;;;9.50;99.90;;;;;;4945616;28;20031;-62
2024/02/09 00:17:13;;;;;;;9.00;2.78;;;9.40;99.90;;;;;;4931674;29;20019;-62
2024/02/09 00:19:39;;;;;;;13.65;3.78;;;9.40;99.90;;;;;;4948424;28;20063;-61
2024/02/09 00:22:04;;;;;;;11.30;3.20;;;9.50;99.90;;;;;;4947566;28;20529;-61
2024/02/09 00:24:31;;;;;;;14.70;3.75;;;9.40;99.90;;;;;;4949154;28;20031;-61
2024/02/09 00:27:00;;;;;;;9.98;3.03;;;9.40;99.90;;;;;;4949941;28;20024;-61
2024/02/09 00:29:28;;;;;;;13.38;3.30;;;9.40;99.90;;;;;;4948884;28;20027;-61
2024/02/09 00:31:54;;;;;;;18.73;3.58;;;9.40;99.90;;;;;;4949830;28;20027;-61
2024/02/09 00:34:20;;;;;;;16.88;4.20;;;9.40;99.90;;;;;;4948749;28;20078;-61
2024/02/09 00:36:50;;;;;;;9.35;3.38;;;9.40;99.90;;;;;;4949316;28;20551;-61
2024/02/09 00:39:18;;;;;;;12.25;3.42;;;9.40;99.90;;;;;;4948412;28;20535;-61
2024/02/09 00:41:44;;;;;;;14.18;4.38;;;9.40;99.90;;;;;;4949163;28;20032;-61
2024/02/09 00:44:10;;;;;;;13.30;3.78;;;9.40;99.90;;;;;;4947876;28;20027;-61
2024/02/09 00:46:49;;;;;;;17.70;4.97;;;9.40;99.90;;;;;;4947854;28;20023;-61
2024/02/09 00:49:14;;;;;;;18.90;4.40;;;9.40;99.90;;;;;;4947602;28;20054;-61
2024/02/09 00:51:41;;;;;;;15.82;4.75;;;9.30;99.90;;;;;;4946965;28;20492;-61
2024/02/09 00:54:07;;;;;;;15.27;3.67;;;9.30;99.90;;;;;;4948370;28;20546;-61
2024/02/09 00:56:33;;;;;;;15.00;3.90;;;9.30;99.90;;;;;;4948678;28;20031;-60
2024/02/09 00:59:01;;;;;;;15.20;3.80;;;9.30;99.90;;;;;;4948270;28;20046;-60
2024/02/09 01:01:26;;;;;;;16.35;3.65;;;9.30;99.90;;;;;;4948950;28;20093;-60
2024/02/09 01:03:53;;;;;;;14.93;3.90;;;9.30;99.90;;;;;;4948163;28;20142;-61
2024/02/09 01:06:21;;;;;;;15.05;3.67;;;9.40;99.90;;;;;;4950040;28;20157;-60
2024/02/09 01:08:47;;;;;;;17.73;3.97;;;9.30;99.90;;;;;;4951138;28;20031;-60
2024/02/09 01:11:13;;;;;;;14.20;3.40;;;9.30;99.90;;;;;;4947999;28;20152;-61
2024/02/09 02:46:25;;;;;;;16.55;4.30;;;9.10;99.90;;;;;;4947417;29;20154;-62
2024/02/09 03:05:24;;;;;;;12.57;3.92;;;9.20;99.90;;;;;;4948049;29;20273;-61
2024/02/09 03:07:50;;;;;;;13.02;3.97;;;9.20;99.90;;;;;;4949193;29;20027;-61
2024/02/09 03:10:17;;;;;;;13.70;4.32;;;9.20;99.90;;;;;;4946069;29;20389;-60
2024/02/09 03:12:43;;;;;;;14.52;3.80;;;9.20;99.90;;;;;;4948990;29;20095;-61
2024/02/09 03:15:09;;;;;;;13.82;4.28;;;9.20;99.90;;;;;;4949101;29;20019;-61
2024/02/09 03:17:37;;;;;;;9.23;3.05;;;9.20;99.90;;;;;;4949456;29;20399;-61
2024/02/09 03:20:04;;;;;;;13.85;4.63;;;9.20;99.90;;;;;;4945485;29;20095;-61
2024/02/09 03:22:31;;;;;;;15.57;4.40;;;9.20;99.90;;;;;;4947415;29;20058;-61
2024/02/09 03:25:03;;;;;;;13.80;4.38;;;9.30;99.90;;;;;;4949233;29;20023;-61
2024/02/09 03:27:33;;;;;;;16.70;5.00;;;9.20;99.90;;;;;;4945591;29;20134;-62
2024/02/09 03:30:04;;;;;;;15.57;4.70;;;9.20;99.90;;;;;;4946897;29;20027;-61
2024/02/09 03:32:32;;;;;;;12.73;4.55;;;9.20;99.90;;;;;;4947297;29;20051;-61
2024/02/09 03:34:59;;;;;;;13.20;4.22;;;9.30;99.90;;;;;;4943490;29;20408;-62
2024/02/09 03:37:26;;;;;;;14.77;4.50;;;9.20;99.90;;;;;;4946114;29;20094;-62
2024/02/09 03:39:59;;;;;;;18.23;4.75;;;9.20;99.90;;;;;;4944658;29;20034;-62
2024/02/09 03:42:25;;;;;;;15.60;4.47;;;9.20;99.90;;;;;;4948254;29;20535;-62
2024/02/09 03:44:51;;;;;;;13.70;4.63;;;9.20;99.90;;;;;;4948742;29;20383;-62
2024/02/09 03:47:24;;;;;;;13.63;3.42;;;9.20;99.90;;;;;;4948685;28;20037;-61
2024/02/09 03:49:54;;;;;;;16.27;4.05;;;9.20;99.90;;;;;;4952747;29;20475;-61
2024/02/09 03:52:21;;;;;;;14.35;4.68;;;9.20;99.90;;;;;;4949779;29;20106;-61
2024/02/09 03:54:51;;;;;;;11.75;3.55;;;9.20;99.90;;;;;;4948537;29;20042;-61
2024/02/09 03:57:20;;;;;;;12.30;4.25;;;9.20;99.90;;;;;;4950099;29;20510;-61
2024/02/09 03:59:46;;;;;;;16.27;4.55;;;9.20;99.90;;;;;;4951280;29;20027;-62
2024/02/09 04:02:12;;;;;;;14.25;4.43;;;9.20;99.90;;;;;;4952562;29;20038;-62
2024/02/09 04:04:38;;;;;;;15.25;5.28;;;9.20;99.90;;;;;;4952445;29;20448;-61
2024/02/09 04:07:05;;;;;;;20.88;4.32;;;9.20;99.90;;;;;;4955029;28;20027;-62
2024/02/09 04:09:33;;;;;;;17.40;4.55;;;9.20;99.90;;;;;;4952373;29;20031;-62
2024/02/09 04:11:59;;;;;;;15.65;4.15;;;9.20;99.90;;;;;;4953282;28;20403;-61
2024/02/09 04:14:24;;;;;;;16.90;4.20;;;9.20;99.90;;;;;;4952220;29;20019;-61
2024/02/09 04:16:50;;;;;;;14.57;4.63;;;9.20;99.90;;;;;;4952147;29;20051;-61
2024/02/09 04:19:17;;;;;;;14.38;4.25;;;9.20;99.90;;;;;;4951618;29;20050;-61
2024/02/09 04:21:47;;;;;;;15.23;4.28;;;9.20;99.90;;;;;;4948108;29;20035;-62
2024/02/09 04:24:19;;;;;;;11.23;3.78;;;9.20;99.90;;;;;;4951609;29;20031;-61
2024/02/09 04:26:46;;;;;;;14.02;4.43;;;9.20;99.90;;;;;;4949990;29;20035;-61
2024/02/09 04:29:16;;;;;;;10.88;3.90;;;9.20;99.90;;;;;;4951374;29;20058;-61
2024/02/09 04:31:43;;;;;;;12.93;3.20;;;9.20;99.90;;;;;;4951512;29;20494;-61
2024/02/09 04:34:12;;;;;;;11.98;3.67;;;9.20;99.90;;;;;;4937367;29;20028;-61
2024/02/09 04:36:39;;;;;;;6.73;2.53;;;9.20;99.90;;;;;;4950137;29;20023;-60
2024/02/09 04:39:08;;;;;;;14.90;4.07;;;9.20;99.90;;;;;;4950901;29;20045;-60
2024/02/09 04:41:35;;;;;;;12.30;3.05;;;9.20;99.90;;;;;;4948978;29;20106;-60
2024/02/09 04:44:01;;;;;;;13.45;3.55;;;9.20;99.90;;;;;;4951420;29;20570;-60
2024/02/09 04:46:26;;;;;;;11.90;3.25;;;9.20;99.90;;;;;;4935042;29;20050;-60
2024/02/09 04:48:52;;;;;;;10.10;3.00;;;9.20;99.90;;;;;;4952114;29;20370;-60
2024/02/09 04:51:18;;;;;;;13.07;2.75;;;9.20;99.90;;;;;;4947739;29;20037;-60
2024/02/09 04:53:43;;;;;;;11.32;2.70;;;9.20;99.90;;;;;;4951554;29;20027;-60
2024/02/09 04:56:09;;;;;;;9.32;2.45;;;9.20;99.90;;;;;;4949510;29;20042;-60
2024/02/09 04:58:36;;;;;;;6.90;2.42;;;9.20;99.90;;;;;;4951300;28;20371;-60
2024/02/09 05:01:02;;;;;;;7.13;2.40;;;9.20;99.90;;;;;;4949281;29;20063;-60
2024/02/09 05:03:27;;;;;;;7.72;2.20;;;9.20;99.90;;;;;;4951225;29;20058;-60
2024/02/09 05:05:53;;;;;;;8.52;1.80;;;9.20;99.90;;;;;;4950254;29;20122;-60
2024/02/09 05:08:19;;;;;;;6.65;2.35;;;9.20;99.90;;;;;;4950148;29;20554;-60
2024/02/09 05:10:46;;;;;;;5.43;1.65;;;9.20;99.90;;;;;;4951199;29;20034;-60
2024/02/09 05:13:12;;;;;;;5.70;2.00;;;9.10;99.90;;;;;;4951336;29;20043;-60
2024/02/09 05:15:38;;;;;;;6.53;2.10;;;9.20;99.90;;;;;;4948794;28;20482;-60
2024/02/09 05:18:04;;;;;;;6.43;1.92;;;9.20;99.90;;;;;;4951878;28;20114;-60
2024/02/09 05:20:29;;;;;;;10.63;1.98;;;9.20;99.90;;;;;;4931916;29;20043;-60
2024/02/09 05:22:57;;;;;;;6.30;1.77;;;9.20;99.90;;;;;;4952009;28;20082;-60
2024/02/09 05:25:23;;;;;;;7.00;2.00;;;9.20;99.90;;;;;;4950783;28;20528;-60
2024/02/09 05:27:49;;;;;;;6.65;1.63;;;9.30;99.90;;;;;;4949994;28;20038;-60
2024/02/09 05:30:15;;;;;;;6.55;2.00;;;9.30;99.90;;;;;;4951478;28;20391;-60
2024/02/09 05:32:41;;;;;;;8.90;1.65;;;9.20;99.90;;;;;;4957341;28;20023;-60
2024/02/09 05:35:08;;;;;;;5.10;1.52;;;9.20;99.90;;;;;;4951193;28;20030;-61
2024/02/09 05:37:34;;;;;;;7.15;1.90;;;9.20;99.90;;;;;;4935654;28;20027;-61
2024/02/09 05:40:00;;;;;;;6.18;1.60;;;9.30;99.90;;;;;;4952518;28;20462;-61
2024/02/09 05:42:26;;;;;;;7.78;2.10;;;9.20;99.90;;;;;;4953151;28;20027;-61
2024/02/09 05:44:52;;;;;;;4.68;1.40;;;9.20;99.90;;;;;;4949479;28;20365;-61
2024/02/09 05:47:18;;;;;;;4.95;1.60;;;9.30;99.90;;;;;;4952690;28;20034;-61
2024/02/09 05:49:43;;;;;;;6.05;1.65;;;9.20;99.90;;;;;;4952366;28;20039;-61
2024/02/09 05:52:10;;;;;;;4.18;1.48;;;9.30;99.90;;;;;;4950525;28;20024;-60
2024/02/09 05:54:36;;;;;;;9.82;1.50;;;9.30;99.90;;;;;;4951525;28;20019;-60
2024/02/09 05:57:02;;;;;;;4.55;1.50;;;9.30;99.90;;;;;;4950043;28;20707;-60
2024/02/09 05:59:28;;;;;;;3.95;1.30;;;9.30;99.90;;;;;;4950294;28;20035;-60
2024/02/09 06:01:54;;;;;;;5.93;1.50;;;9.30;99.90;;;;;;4951907;28;20035;-60
2024/02/09 06:04:21;;;;;;;5.25;1.80;;;9.30;99.90;;;;;;4946187;29;20038;-60
2024/02/09 06:06:47;;;;;;;8.32;2.05;;;9.30;99.90;;;;;;4951631;29;20038;-60
2024/02/09 06:09:13;;;;;;;5.82;1.70;;;9.20;99.90;;;;;;4948385;28;20479;-60
2024/02/09 06:11:38;;;;;;;5.28;1.63;;;9.20;99.90;;;;;;4952091;28;20745;-60
2024/02/09 06:14:04;;;;;;;4.43;1.50;;;9.20;99.90;;;;;;4951122;28;20026;-60
2024/02/09 06:16:31;;;;;;;4.82;1.70;;;9.10;99.90;;;;;;4947872;28;20038;-60
2024/02/09 06:18:57;;;;;;;5.97;1.73;;;9.30;99.90;;;;;;4949415;28;20058;-60
2024/02/09 06:21:22;;;;;;;5.85;1.70;;;9.30;99.90;;;;;;4944786;28;20047;-60
2024/02/09 06:23:49;;;;;;;5.25;1.70;;;9.20;99.90;;;;;;4949046;28;20031;-60
2024/02/09 06:26:18;;;;;;;6.00;1.50;;;9.20;99.90;;;;;;4951977;28;20058;-60
2024/02/09 06:28:48;;;;;;;5.38;1.77;;;9.20;99.90;;;;;;4945830;28;20027;-60
2024/02/09 06:31:29;;;;;;;4.70;1.45;;;9.30;99.90;;;;;;4950143;28;20035;-60
2024/02/09 06:33:57;;;;;;;6.47;1.50;;;9.40;99.90;;;;;;4948212;28;20031;-61
2024/02/09 06:36:24;;;;;;;5.93;1.95;;;9.40;99.90;;;;;;4950264;28;20086;-60
2024/02/09 06:38:50;;;;;;;4.50;1.40;;;9.40;99.90;;;;;;4949517;28;20035;-60
2024/02/09 06:41:16;;;;;;;5.35;1.60;;;9.40;99.90;;;;;;4929207;28;20078;-60
2024/02/09 06:43:42;;;;;;;7.22;1.50;;;9.40;99.90;;;;;;4945859;28;20031;-61
2024/02/09 06:46:09;;;;;;;3.80;1.20;;;9.50;99.90;;;;;;4949458;28;20110;-60
2024/02/09 06:48:35;;;;;;;5.20;1.77;;;9.50;99.90;;;;;;4949503;28;20488;-61
2024/02/09 06:51:03;;;;;;;6.22;1.80;;;9.60;99.90;;;;;;4952683;28;20198;-61
2024/02/09 06:53:28;;;;;;;5.20;1.50;;;9.50;99.90;;;;;;4949702;28;20019;-61
2024/02/09 06:55:54;;;;;;;4.50;1.40;;;9.50;99.90;;;;;;4949579;28;20086;-61
2024/02/09 06:58:23;;;;;;;5.72;1.50;;;9.50;99.90;;;;;;4946729;28;20024;-61
2024/02/09 07:00:52;;;;;;;5.38;1.30;;;9.50;99.90;;;;;;4951786;28;20082;-61
2024/02/09 07:03:18;;;;;;;6.43;1.42;;;9.50;99.90;;;;;;4948382;28;20019;-61
2024/02/09 07:05:44;;;;;;;6.38;1.70;;;9.50;99.90;;;;;;4951831;28;20031;-62
2024/02/09 07:08:09;;;;;;;5.63;1.52;;;9.40;99.90;;;;;;4944582;28;20038;-62
2024/02/09 07:10:35;;;;;;;3.88;1.33;;;9.50;99.90;;;;;;4947915;28;20515;-61
2024/02/09 07:13:01;;;;;;;4.47;1.58;;;9.50;99.90;;;;;;4949191;28;20097;-61
2024/02/09 07:15:26;;;;;;;6.13;1.60;;;9.50;99.90;;;;;;4948753;28;20031;-62
2024/02/09 07:17:56;;;;;;;4.63;1.48;;;9.50;99.90;;;;;;4934024;29;20039;-62
2024/02/09 07:20:24;;;;;;;3.90;1.27;;;9.50;99.90;;;;;;4948272;28;20051;-62
2024/02/09 07:22:51;;;;;;;5.15;1.50;;;9.60;99.90;;;;;;4951695;28;20133;-61
2024/02/09 07:25:16;;;;;;;5.40;1.65;;;9.60;99.90;;;;;;4953209;28;20030;-61
2024/02/09 07:27:42;;;;;;;6.97;1.30;;;9.60;99.90;;;;;;4952808;28;20431;-61
2024/02/09 07:30:09;;;;;;;4.18;1.30;;;9.60;99.90;;;;;;4950399;28;20070;-61
2024/02/09 07:32:35;;;;;;;4.55;1.50;;;9.70;99.90;;;;;;4951851;28;20055;-61
2024/02/09 07:35:01;;;;;;;3.13;1.30;;;9.70;99.90;;;;;;4946870;28;20110;-61
2024/02/09 07:37:26;;;;;;;4.70;1.40;;;9.70;99.90;;;;;;4952125;29;20434;-61
2024/02/09 07:39:53;;;;;;;5.57;1.67;;;9.70;99.90;;;;;;4942825;29;20031;-61
2024/02/09 07:42:20;;;;;;;5.15;1.45;;;9.80;99.90;;;;;;4951314;29;20062;-61
2024/02/09 07:44:45;;;;;;;6.43;1.67;;;9.90;99.90;;;;;;4951763;28;20078;-61
2024/02/09 07:47:11;;;;;;;5.65;1.52;;;9.90;99.90;;;;;;4951417;29;20031;-61
2024/02/09 07:49:37;;;;;;;5.00;1.63;;;9.90;99.90;;;;;;4945986;29;20422;-61
2024/02/09 07:52:03;;;;;;;3.78;1.30;;;9.90;99.90;;;;;;4949864;29;20345;-61
2024/02/09 07:54:31;;;;;;;5.13;1.50;;;9.90;99.90;;;;;;4951745;29;20032;-60
2024/02/09 07:56:57;;;;;;;4.43;1.52;;;10.00;99.90;;;;;;4952345;29;20505;-60
2024/02/09 07:59:26;;;;;;;6.13;1.60;;;10.00;99.90;;;;;;4952144;29;20037;-60
2024/02/09 08:01:52;;;;;;;5.65;1.60;;;10.00;99.90;;;;;;4955287;28;20062;-60
2024/02/09 08:04:19;;;;;;;5.53;1.73;;;10.00;99.90;;;;;;4951505;28;20075;-60
2024/02/09 08:06:45;;;;;;;5.50;1.67;;;10.00;99.90;;;;;;4948933;28;20027;-61
2024/02/09 08:09:10;;;;;;;6.95;1.80;;;10.00;99.90;;;;;;4951707;29;20078;-60
2024/02/09 08:11:38;;;;;;;5.10;1.70;;;10.10;99.90;;;;;;4952522;29;20019;-60
2024/02/09 08:14:04;;;;;;;4.82;1.58;;;10.10;99.90;;;;;;4931610;29;20041;-60
2024/02/09 08:16:30;;;;;;;5.95;2.10;;;10.20;99.90;;;;;;4951623;29;20031;-60
2024/02/09 08:18:55;;;;;;;4.88;2.08;;;10.10;99.90;;;;;;4950496;28;20533;-60
2024/02/09 08:21:22;;;;;;;6.10;1.65;;;10.10;99.90;;;;;;4948988;29;20330;-60
2024/02/09 08:23:48;;;;;;;6.32;1.92;;;10.10;99.90;;;;;;4951016;29;20379;-60
2024/02/09 08:26:13;;;;;;;7.47;1.73;;;10.00;99.90;;;;;;4950910;29;20286;-60
2024/02/09 08:28:43;;;;;;;8.05;1.80;;;10.10;99.90;;;;;;4950919;29;20079;-60
2024/02/09 08:31:16;;;;;;;3.78;1.38;;;10.10;99.90;;;;;;4947258;29;20019;-60
2024/02/09 08:33:49;;;;;;;7.28;1.80;;;10.10;99.90;;;;;;4949304;28;20110;-60
2024/02/09 08:36:22;;;;;;;10.88;2.75;;;10.10;99.90;;;;;;4944987;29;20011;-60
2024/02/09 08:38:49;;;;;;;7.40;1.77;;;10.10;99.90;;;;;;4949444;29;20058;-60
2024/02/09 08:41:15;;;;;;;10.00;2.08;;;10.10;99.90;;;;;;4948443;29;20551;-61
2024/02/09 08:43:43;;;;;;;7.47;2.47;;;10.10;99.90;;;;;;4950105;29;20118;-62
2024/02/09 08:46:08;;;;;;;7.35;2.03;;;10.10;99.90;;;;;;4947150;29;20598;-61
2024/02/09 08:48:34;;;;;;;9.48;2.25;;;10.10;99.90;;;;;;4950639;29;20114;-61
2024/02/09 08:51:00;;;;;;;14.32;2.40;;;10.10;99.90;;;;;;4945262;29;20020;-60
2024/02/09 08:53:25;;;;;;;8.73;1.90;;;10.10;99.90;;;;;;4949886;29;20113;-60
2024/02/09 08:55:51;;;;;;;5.97;1.85;;;10.10;99.90;;;;;;4941305;29;20473;-60
2024/02/09 08:58:19;;;;;;;8.02;1.95;;;10.00;99.90;;;;;;4949520;29;20035;-60
2024/02/09 09:00:45;;;;;;;7.07;2.50;;;10.10;99.90;;;;;;4947420;29;20032;-61
2024/02/09 09:03:11;;;;;;;5.80;1.77;;;10.10;99.90;;;;;;4949923;29;20035;-61
2024/02/09 09:05:36;;;;;;;5.15;1.90;;;10.10;99.90;;;;;;4947405;29;20027;-60
2024/02/09 09:08:03;;;;;;;7.30;2.05;;;10.10;99.90;;;;;;4949740;29;20078;-61
2024/02/09 09:10:28;;;;;;;7.25;2.00;;;10.00;99.90;;;;;;4948362;29;20412;-60
2024/02/09 09:12:54;;;;;;;6.75;2.13;;;10.00;99.90;;;;;;4950723;29;20027;-60
2024/02/09 09:15:19;;;;;;;7.47;2.20;;;10.00;99.90;;;;;;4947316;29;20717;-60
2024/02/09 09:17:47;;;;;;;6.18;1.98;;;10.00;99.90;;;;;;4949877;29;20023;-60
2024/02/09 09:20:12;;;;;;;7.53;2.10;;;10.10;99.90;;;;;;4947533;29;20055;-60
2024/02/09 09:22:39;;;;;;;4.15;1.55;;;10.10;99.90;;;;;;4949678;29;20031;-60
2024/02/09 09:25:07;;;;;;;8.02;2.22;;;10.20;99.90;;;;;;4946794;29;20133;-60
2024/02/09 09:27:34;;;;;;;6.85;1.95;;;10.20;99.90;;;;;;4950154;29;20540;-60
2024/02/09 09:30:01;;;;;;;8.60;2.13;;;10.30;99.90;;;;;;4947027;29;20102;-60
2024/02/09 09:32:27;;;;;;;6.53;1.80;;;10.40;99.90;;;;;;4946419;29;20028;-61
2024/02/09 09:34:53;;;;;;;4.38;1.52;;;10.40;99.90;;;;;;4948616;29;20376;-60
2024/02/09 09:37:18;;;;;;;5.57;1.52;;;10.60;99.90;;;;;;4948372;29;20057;-60
2024/02/09 09:39:44;;;;;;;7.90;2.03;;;10.70;99.90;;;;;;4949061;29;20031;-60
2024/02/09 09:42:10;;;;;;;7.38;1.63;;;10.80;99.90;;;;;;4947558;29;20035;-60
2024/02/09 09:44:35;;;;;;;6.85;1.50;;;10.90;99.90;;;;;;4949344;28;20210;-60
2024/02/09 09:47:01;;;;;;;10.75;2.00;;;11.00;99.90;;;;;;4946823;29;20475;-62
2024/02/09 09:49:30;;;;;;;5.05;1.70;;;11.00;99.90;;;;;;4949431;29;20031;-62
2024/02/09 09:51:59;;;;;;;8.45;1.58;;;11.20;99.90;;;;;;4946645;29;20099;-61
2024/02/09 09:54:29;;;;;;;5.43;1.90;;;11.30;99.90;;;;;;4931792;29;20054;-61
2024/02/09 09:56:55;;;;;;;6.00;1.85;;;11.30;99.90;;;;;;4946995;29;20510;-61
2024/02/09 09:59:21;;;;;;;5.22;1.67;;;11.40;99.90;;;;;;4948384;29;20039;-61
2024/02/09 10:01:48;;;;;;;5.75;1.77;;;11.40;99.90;;;;;;4947242;29;20041;-61
2024/02/09 10:04:15;;;;;;;9.02;1.55;;;11.50;99.90;;;;;;4948305;29;20027;-61
2024/02/09 10:06:40;;;;;;;6.05;1.60;;;11.60;99.90;;;;;;4946477;29;20411;-61
2024/02/09 10:09:08;;;;;;;9.88;1.77;;;11.80;99.90;;;;;;4948073;29;20035;-61
2024/02/09 10:11:35;;;;;;;4.75;1.60;;;12.10;99.90;;;;;;4947097;29;20023;-61
2024/02/09 10:14:01;;;;;;;8.27;1.80;;;12.30;99.90;;;;;;4948407;29;20430;-62
2024/02/09 10:16:27;;;;;;;15.23;1.80;;;12.20;99.90;;;;;;4947017;29;20098;-61
2024/02/09 10:18:52;;;;;;;6.80;1.90;;;12.10;99.90;;;;;;4948464;29;20074;-61
2024/02/09 10:21:19;;;;;;;3.58;1.13;;;12.00;99.90;;;;;;4944554;29;20407;-61
2024/02/09 10:23:47;;;;;;;3.58;1.25;;;11.90;99.90;;;;;;4948599;29;20378;-61
2024/02/09 10:26:13;;;;;;;6.53;1.98;;;12.00;99.90;;;;;;4946352;29;20027;-61
2024/02/09 10:28:39;;;;;;;11.30;2.10;;;12.10;99.90;;;;;;4948216;29;20023;-61
2024/02/09 10:31:05;;;;;;;10.35;1.90;;;12.20;99.90;;;;;;4948173;29;20035;-61
2024/02/09 10:33:31;;;;;;;6.45;1.63;;;12.30;99.90;;;;;;4948397;29;20366;-62
2024/02/09 10:35:59;;;;;;;6.35;1.80;;;12.40;99.90;;;;;;4946607;29;20213;-61
2024/02/09 10:38:27;;;;;;;6.40;1.70;;;12.50;99.90;;;;;;4947621;29;20031;-61
2024/02/09 10:40:56;;;;;;;8.18;1.95;;;12.60;99.90;;;;;;4927596;29;20357;-61
2024/02/09 10:43:30;;;;;;;4.93;1.33;;;12.90;99.90;;;;;;4943578;29;20035;-61
2024/02/09 10:45:57;;;;;;;4.72;1.35;;;13.00;99.90;;;;;;4945779;29;20411;-62
2024/02/09 10:48:36;;;;;;;5.63;1.85;;;13.30;99.90;;;;;;4947258;29;20035;-61
2024/02/09 10:51:08;;;;;;;4.45;1.50;;;13.60;99.90;;;;;;4944399;29;20033;-62
2024/02/09 10:53:49;;;;;;;5.57;1.63;;;14.00;99.90;;;;;;4946711;29;20032;-61
2024/02/09 10:56:16;;;;;;;4.68;1.67;;;14.10;99.90;;;;;;4945363;28;20023;-61
2024/02/09 10:58:42;;;;;;;7.50;1.85;;;13.70;99.90;;;;;;4947758;29;20111;-61
2024/02/09 11:01:08;;;;;;;6.03;1.80;;;13.40;99.90;;;;;;4945322;29;20111;-61
2024/02/09 11:03:34;;;;;;;5.45;1.70;;;13.20;99.90;;;;;;4946998;29;20398;-62
2024/02/09 11:06:01;;;;;;;6.32;2.15;;;13.10;99.90;;;;;;4945924;29;20291;-61
2024/02/09 11:08:29;;;;;;;8.77;2.10;;;12.90;99.90;;;;;;4947471;29;20089;-61
2024/02/09 11:11:01;;;;;;;6.00;1.83;;;12.60;99.90;;;;;;4947195;29;20427;-61
2024/02/09 11:13:27;;;;;;;7.95;2.00;;;12.40;99.90;;;;;;4947703;29;20037;-61
2024/02/09 11:15:57;;;;;;;6.63;2.08;;;12.20;99.90;;;;;;4946971;29;20102;-62
2024/02/09 11:18:29;;;;;;;8.93;2.20;;;12.00;99.90;;;;;;4944791;29;20123;-61
2024/02/09 11:21:06;;;;;;;8.15;2.40;;;11.80;99.90;;;;;;4944148;29;20035;-61
2024/02/09 11:23:33;;;;;;;6.40;2.03;;;11.70;99.90;;;;;;4947640;29;20078;-61
2024/02/09 11:26:00;;;;;;;9.45;2.35;;;11.60;99.90;;;;;;4946919;29;20057;-60
2024/02/09 11:28:25;;;;;;;8.32;2.78;;;11.50;99.90;;;;;;4933119;29;20464;-60
2024/02/09 11:30:54;;;;;;;9.98;2.90;;;11.50;99.90;;;;;;4946843;29;20062;-60
2024/02/09 11:33:23;;;;;;;9.43;2.83;;;11.40;99.90;;;;;;4943323;29;20033;-60
2024/02/09 11:35:49;;;;;;;10.25;2.97;;;11.30;99.90;;;;;;4948254;29;20032;-60
2024/02/09 11:38:19;;;;;;;7.25;2.20;;;11.30;99.90;;;;;;4946775;29;20043;-60
2024/02/09 11:40:44;;;;;;;10.35;2.97;;;11.20;99.90;;;;;;4944700;29;20031;-60
2024/02/09 11:43:12;;;;;;;8.65;2.53;;;11.20;99.90;;;;;;4946949;29;20058;-60
2024/02/09 11:45:39;;;;;;;9.40;2.85;;;11.20;99.90;;;;;;4947292;29;20028;-60
2024/02/09 11:48:06;;;;;;;7.25;2.42;;;11.20;99.90;;;;;;4947281;29;20393;-60
2024/02/09 11:50:32;;;;;;;8.38;2.80;;;11.30;99.90;;;;;;4940415;29;20351;-60
2024/02/09 11:53:06;;;;;;;6.88;2.60;;;11.50;99.90;;;;;;4947545;29;20470;-59
2024/02/09 11:55:32;;;;;;;8.18;2.88;;;11.90;99.90;;;;;;4924371;29;20046;-60
2024/02/09 11:57:59;;;;;;;8.65;2.75;;;12.10;99.90;;;;;;4947541;29;20436;-60
2024/02/09 12:00:28;;;;;;;9.70;2.45;;;12.10;99.90;;;;;;4946320;29;20050;-60
2024/02/09 12:02:54;;;;;;;9.90;3.08;;;12.10;99.90;;;;;;4947722;29;20206;-60
2024/02/09 12:05:20;;;;;;;8.00;2.50;;;12.10;99.90;;;;;;4947513;29;20665;-60
2024/02/09 12:07:46;;;;;;;8.10;2.40;;;12.20;99.90;;;;;;4947167;28;20035;-60
2024/02/09 12:10:12;;;;;;;7.55;2.42;;;12.30;99.90;;;;;;4948917;29;20035;-60
2024/02/09 12:12:38;;;;;;;6.35;2.53;;;12.40;99.90;;;;;;4950978;29;20047;-60
2024/02/09 12:15:05;;;;;;;12.05;3.83;;;12.40;99.90;;;;;;4949241;29;20020;-60
2024/02/09 12:17:31;;;;;;;8.93;2.72;;;12.50;99.90;;;;;;4951243;29;20026;-61
2024/02/09 12:20:05;;;;;;;13.32;2.65;;;12.50;99.90;;;;;;4949931;29;20043;-60
2024/02/09 12:22:31;;;;;;;9.70;2.10;;;12.60;99.90;;;;;;4949350;29;20131;-60
2024/02/09 12:24:57;;;;;;;7.97;2.33;;;13.00;99.90;;;;;;4950012;29;20236;-60
2024/02/09 12:27:25;;;;;;;7.13;2.13;;;13.10;99.90;;;;;;4950786;29;20512;-60
2024/02/09 12:29:50;;;;;;;8.32;2.10;;;13.10;99.90;;;;;;4949614;29;20043;-60
2024/02/09 12:32:17;;;;;;;10.48;2.30;;;13.40;99.90;;;;;;4950848;29;20023;-60
2024/02/09 12:34:54;;;;;;;8.93;2.33;;;13.70;99.90;;;;;;4947040;29;20170;-61
2024/02/09 12:37:20;;;;;;;8.10;2.30;;;13.70;99.90;;;;;;4947584;29;20019;-61
2024/02/09 12:39:49;;;;;;;8.90;2.65;;;13.80;99.90;;;;;;4949733;29;20510;-61
2024/02/09 12:42:18;;;;;;;6.03;2.30;;;13.70;99.90;;;;;;4950181;29;20526;-61
2024/02/09 12:44:49;;;;;;;5.50;2.22;;;13.30;99.90;;;;;;4946962;29;20475;-61
2024/02/09 12:47:16;;;;;;;8.05;2.50;;;13.00;99.90;;;;;;4947051;29;20023;-61
2024/02/09 12:49:43;;;;;;;8.60;2.40;;;12.70;99.90;;;;;;4947859;29;20085;-61
2024/02/09 12:52:11;;;;;;;8.95;2.40;;;12.60;99.90;;;;;;4948426;29;20098;-61
2024/02/09 12:54:37;;;;;;;7.88;2.78;;;12.50;99.90;;;;;;4933068;29;20030;-61
2024/02/09 12:57:06;;;;;;;7.47;2.40;;;12.40;99.90;;;;;;4949781;29;20016;-61
2024/02/09 12:59:34;;;;;;;8.20;2.95;;;12.40;99.90;;;;;;4950316;29;20023;-61
2024/02/09 13:02:01;;;;;;;7.75;2.30;;;12.40;99.90;;;;;;4950636;29;20035;-61
2024/02/09 13:04:27;;;;;;;7.65;2.60;;;12.30;99.90;;;;;;4949648;29;20027;-61
2024/02/09 13:06:53;;;;;;;7.68;2.70;;;12.30;99.90;;;;;;4946133;29;20019;-62
2024/02/09 13:09:19;;;;;;;6.57;2.20;;;12.30;99.90;;;;;;4949328;29;20027;-62
2024/02/09 13:11:49;;;;;;;7.18;2.28;;;12.40;99.90;;;;;;4950480;29;20026;-62
2024/02/09 13:14:17;;;;;;;8.68;2.78;;;12.30;99.90;;;;;;4949086;29;20035;-62
2024/02/09 13:16:42;;;;;;;7.70;2.50;;;12.30;99.90;;;;;;4941359;29;20027;-62
2024/02/09 13:19:10;;;;;;;9.05;2.33;;;12.30;99.90;;;;;;4945055;28;20121;-61
2024/02/09 13:21:35;;;;;;;5.88;2.30;;;12.10;99.90;;;;;;4948202;29;20027;-62
2024/02/09 13:24:06;;;;;;;6.03;2.10;;;12.10;99.90;;;;;;4949122;29;20118;-62
2024/02/09 13:26:33;;;;;;;9.38;2.38;;;12.20;99.90;;;;;;4950191;29;20176;-62
2024/02/09 13:29:01;;;;;;;5.60;1.90;;;12.10;99.90;;;;;;4949170;29;20034;-62
2024/02/09 13:31:27;;;;;;;5.47;2.10;;;12.20;99.90;;;;;;4950847;29;20400;-62
2024/02/09 13:33:53;;;;;;;8.70;2.53;;;12.30;99.90;;;;;;4949454;29;20106;-62
2024/02/09 13:36:18;;;;;;;6.70;2.30;;;12.20;99.90;;;;;;4949603;29;20023;-62
2024/02/09 13:38:44;;;;;;;6.43;2.22;;;12.30;99.90;;;;;;4949165;29;20071;-62
2024/02/09 13:41:10;;;;;;;7.18;2.20;;;12.30;99.90;;;;;;4945334;29;20027;-62
2024/02/09 13:43:36;;;;;;;9.70;1.95;;;12.30;99.90;;;;;;4949839;29;20344;-62
2024/02/09 13:46:05;;;;;;;8.23;2.47;;;12.30;99.90;;;;;;4949206;29;20513;-62
2024/02/09 13:48:31;;;;;;;11.68;2.20;;;12.30;99.90;;;;;;4949276;29;20475;-62
2024/02/09 13:50:57;;;;;;;9.35;2.10;;;12.20;99.90;;;;;;4944133;29;20300;-62
2024/02/09 13:53:22;;;;;;;6.13;2.00;;;12.20;99.90;;;;;;4948786;29;20027;-62
2024/02/09 13:55:48;;;;;;;8.77;1.90;;;12.30;99.90;;;;;;4949486;29;20023;-62
2024/02/09 13:58:14;;;;;;;8.52;2.35;;;12.20;99.90;;;;;;4948808;29;20058;-62
2024/02/09 14:00:42;;;;;;;5.90;2.15;;;12.20;99.90;;;;;;4949695;29;20483;-62
2024/02/09 14:03:08;;;;;;;5.50;2.20;;;12.20;99.90;;;;;;4948844;29;20047;-61
2024/02/09 14:05:34;;;;;;;6.15;2.05;;;12.20;99.90;;;;;;4945836;29;20034;-62
2024/02/09 14:07:59;;;;;;;7.05;2.45;;;12.20;99.90;;;;;;4949432;29;20023;-61
2024/02/09 14:10:25;;;;;;;6.47;2.30;;;12.20;99.90;;;;;;4949238;29;20201;-62
2024/02/09 14:12:53;;;;;;;8.60;2.42;;;12.20;99.90;;;;;;4949112;29;20415;-62
2024/02/09 14:15:18;;;;;;;7.63;2.30;;;12.10;99.90;;;;;;4948629;29;20023;-62
2024/02/09 14:17:44;;;;;;;5.82;2.30;;;12.20;99.90;;;;;;4948907;29;20467;-62
2024/02/09 14:20:10;;;;;;;7.43;2.42;;;12.20;99.90;;;;;;4948155;29;20059;-62
2024/02/09 14:22:36;;;;;;;7.43;2.35;;;12.20;99.90;;;;;;4928586;29;20304;-62
2024/02/09 14:25:02;;;;;;;10.35;2.60;;;12.30;99.90;;;;;;4940419;29;20464;-61
2024/02/09 14:27:29;;;;;;;5.40;2.00;;;12.30;99.90;;;;;;4944252;29;20687;-62
2024/02/09 14:29:55;;;;;;;6.28;2.10;;;12.30;99.90;;;;;;4944105;29;20030;-63
2024/02/09 14:32:22;;;;;;;8.35;2.03;;;12.30;99.90;;;;;;4946400;28;20035;-62
2024/02/09 14:34:47;;;;;;;6.95;2.15;;;12.30;99.90;;;;;;4943181;29;20031;-62